Observations for BOURNEMOUTH AIRPORT, United Kingdom (EGHH)

EGHH 112150Z 14007KT 9999 NSC 10/06 Q1020   
EGHH 112120Z 14008KT 9999 NSC 09/05 Q1020   
EGHH 112050Z 14008KT 9999 NSC 09/05 Q1021   
EGHH 112020Z 14006KT 9999 NSC 10/05 Q1021   
EGHH 111950Z 15006KT 9999 FEW033 10/05 Q1021
EGHH 111920Z 15006KT 9999 FEW033 10/06 Q1021
EGHH 111850Z 15010KT 9999 FEW033 10/05 Q1021
EGHH 111820Z 16009KT 9999 FEW024 SCT033 10/05 Q1021 
EGHH 111750Z 17006KT 9999 FEW024 10/06 Q1021
EGHH 111720Z 16005KT 040V180 9999 FEW030 10/06 Q1021
EGHH 111650Z 17005KT 9999 FEW048 10/06 Q1021
EGHH 111620Z 17006KT 9999 FEW048 10/06 Q1021
EGHH 111550Z 19006KT 9999 FEW033 10/06 Q1021
EGHH 111520Z 20007KT 9999 SCT033 10/06 Q1022
EGHH 111450Z 18008KT 9999 FEW022 SCT034 10/07 Q1022 
EGHH 111420Z 18008KT 9999 FEW027 SCT034 11/07 Q1022 
EGHH 111350Z 19007KT 9999 BKN027 11/07 Q1023
EGHH 111320Z 17006KT 9999 FEW015 BKN024 10/07 Q1023 
EGHH 111250Z 16005KT 9999 FEW014 BKN021 10/08 Q1023 
EGHH 111220Z 15007KT 9999 6000N FEW011 SCT016 BKN020 10/08 Q1023
EGHH 111150Z 11006KT 9999 FEW018 SCT019 BKN031 10/07 Q1023  
EGHH 111120Z 11006KT 9999 FEW024 09/07 Q1024
EGHH 111050Z 12006KT 9999 FEW024 09/08 Q1024
EGHH 111020Z 08003KT 9999 FEW024 07/06 Q1025
EGHH 110950Z 07002KT 9999 SCT037 05/05 Q1025
EGHH 110920Z 08003KT 9999 FEW025 SCT037 04/04 Q1025 
EGHH 110850Z 07002KT 9999 FEW025 SCT037 03/03 Q1025 
EGHH 110820Z VRB04KT 9999 BKN037 02/02 Q1025
EGHH 110750Z VRB04KT 9000 BKN037 02/02 Q1025
EGHH 110720Z 07004KT 9999 BKN037 01/01 Q1025
EGHH 110650Z 04002KT 9000 BKN037 01/01 Q1025
EGHH 110620Z 00000KT 9999 BKN037 01/00 Q1025
EGHH 110550Z 00000KT 8000 BKN037 00/00 Q1025
EGHH 102150Z 06001KT 9999 MIFG NSC 02/02 Q1028